createdAt,value
2019-05-18T00:04:49.499Z,99.90
2019-05-18T00:07:53.559Z,99.90
2019-05-18T00:10:57.618Z,99.90
2019-05-18T00:14:02.105Z,99.90
2019-05-18T00:17:09.516Z,99.90
2019-05-18T00:20:12.387Z,99.90
2019-05-18T00:23:16.441Z,99.90
2019-05-18T00:26:20.494Z,99.90
2019-05-18T00:29:24.431Z,99.90
2019-05-18T00:32:32.309Z,99.90
2019-05-18T00:35:36.363Z,99.90
2019-05-18T00:38:40.699Z,99.90
2019-05-18T00:41:50.852Z,99.90
2019-05-18T00:44:54.940Z,99.90
2019-05-18T00:47:58.908Z,99.90
2019-05-18T00:51:02.900Z,99.90
2019-05-18T00:54:06.859Z,99.90
2019-05-18T00:57:10.879Z,99.90
2019-05-18T01:00:15.691Z,99.90
2019-05-18T01:03:19.673Z,99.90
2019-05-18T01:06:28.200Z,99.90
2019-05-18T01:09:32.384Z,99.90
2019-05-18T01:12:36.365Z,99.90
2019-05-18T01:15:40.339Z,99.90
2019-05-18T01:18:44.394Z,99.90
2019-05-18T01:21:48.318Z,99.90
2019-05-18T01:24:52.318Z,99.90
2019-05-18T01:27:57.306Z,99.90
2019-05-18T01:31:01.228Z,99.90
2019-05-18T01:34:05.464Z,99.90
2019-05-18T01:37:09.357Z,99.90
2019-05-18T01:40:14.081Z,99.90
2019-05-18T01:43:17.939Z,99.90
2019-05-18T01:46:22.087Z,99.90
2019-05-18T01:49:25.963Z,99.90
2019-05-18T01:52:32.960Z,99.90
2019-05-18T01:55:36.793Z,99.90
2019-05-18T01:58:40.761Z,99.90
2019-05-18T02:01:44.649Z,99.90
2019-05-18T02:04:48.548Z,99.90
2019-05-18T02:07:52.465Z,99.90
2019-05-18T02:10:56.383Z,99.90
2019-05-18T02:14:00.240Z,99.90
2019-05-18T02:17:04.106Z,99.90
2019-05-18T02:20:08.313Z,99.90
2019-05-18T02:23:12.290Z,99.90
2019-05-18T02:26:16.281Z,99.90
2019-05-18T02:29:20.161Z,99.90
2019-05-18T02:32:24.213Z,99.90
2019-05-18T02:35:28.215Z,99.90
2019-05-18T02:38:32.684Z,99.90
2019-05-18T02:41:36.905Z,99.90
2019-05-18T02:44:40.797Z,99.90
2019-05-18T02:47:44.620Z,99.90
2019-05-18T02:50:48.544Z,99.90
2019-05-18T02:53:52.409Z,99.90
2019-05-18T02:56:56.400Z,99.90
2019-05-18T03:00:00.289Z,99.90
2019-05-18T03:03:04.274Z,99.90
2019-05-18T03:06:08.186Z,99.90
2019-05-18T03:09:12.151Z,99.90
2019-05-18T03:12:16.012Z,99.90
2019-05-18T03:15:19.938Z,99.90
2019-05-18T03:18:23.809Z,99.90
2019-05-18T03:21:27.717Z,99.90
2019-05-18T03:24:31.604Z,99.90
2019-05-18T03:27:35.623Z,99.90
2019-05-18T03:30:39.473Z,99.90
2019-05-18T03:33:43.436Z,99.90
2019-05-18T03:36:47.398Z,99.90
2019-05-18T03:39:51.512Z,99.90
2019-05-18T03:42:55.494Z,99.90
2019-05-18T03:45:59.566Z,99.90
2019-05-18T03:49:03.401Z,99.90
2019-05-18T03:52:07.374Z,99.90
2019-05-18T03:55:11.337Z,99.90
2019-05-18T03:58:15.396Z,99.90
2019-05-18T04:01:19.307Z,99.90
2019-05-18T04:04:23.244Z,99.90
2019-05-18T04:07:28.010Z,99.90
2019-05-18T04:10:31.921Z,99.90
2019-05-18T04:13:35.875Z,99.90
2019-05-18T04:16:39.818Z,99.90
2019-05-18T04:19:46.778Z,99.90
2019-05-18T04:22:49.337Z,99.90
2019-05-18T04:25:53.219Z,99.90
2019-05-18T04:28:57.150Z,99.90
2019-05-18T04:32:01.053Z,99.90
2019-05-18T04:35:07.026Z,99.90
2019-05-18T04:38:10.839Z,99.90
2019-05-18T04:41:14.759Z,99.90
2019-05-18T04:44:18.655Z,99.90
2019-05-18T04:47:22.545Z,99.90
2019-05-18T04:50:26.435Z,99.90
2019-05-18T04:53:30.423Z,99.90
2019-05-18T04:56:34.417Z,99.90
2019-05-18T04:59:38.359Z,99.90
2019-05-18T05:02:42.310Z,99.90
2019-05-18T05:05:46.291Z,99.90
2019-05-18T05:08:50.215Z,99.90
2019-05-18T05:11:54.132Z,99.90
2019-05-18T05:14:58.060Z,99.90
2019-05-18T05:18:01.983Z,99.90
2019-05-18T05:21:05.978Z,99.90
2019-05-18T05:24:09.917Z,99.90
2019-05-18T05:27:13.902Z,99.90
2019-05-18T05:30:18.190Z,99.90
2019-05-18T05:33:22.243Z,99.90
2019-05-18T05:36:26.164Z,99.90
2019-05-18T05:39:30.145Z,99.90
2019-05-18T05:42:34.118Z,99.90
2019-05-18T05:45:37.948Z,99.90
2019-05-18T05:48:41.792Z,99.90
2019-05-18T05:51:46.295Z,99.90
2019-05-18T05:54:50.164Z,99.90
2019-05-18T05:57:56.174Z,99.90
2019-05-18T06:01:00.030Z,99.90
2019-05-18T06:04:04.085Z,99.90
2019-05-18T06:07:07.932Z,99.90
2019-05-18T06:10:13.303Z,99.90
2019-05-18T06:13:18.176Z,99.90
2019-05-18T06:16:22.056Z,99.90
2019-05-18T06:19:25.908Z,99.90
2019-05-18T06:22:32.473Z,99.90
2019-05-18T06:25:37.789Z,99.90
2019-05-18T06:28:41.686Z,99.90
2019-05-18T06:31:45.603Z,99.90
2019-05-18T06:34:51.757Z,99.90
2019-05-18T06:37:55.581Z,99.90
2019-05-18T06:40:59.569Z,99.90
2019-05-18T06:44:13.649Z,99.90
2019-05-18T06:51:06.380Z,99.90
2019-05-18T06:54:01.703Z,99.90
2019-05-18T07:00:31.157Z,99.90
2019-05-18T07:17:17.459Z,99.90
2019-05-18T07:20:21.336Z,99.90
2019-05-18T07:27:00.059Z,99.90
2019-05-18T07:30:06.222Z,99.90
2019-05-18T07:33:10.053Z,99.90
2019-05-18T07:36:13.947Z,99.90
2019-05-18T07:39:17.818Z,63.70
2019-05-18T07:42:21.665Z,49.40
2019-05-18T07:45:25.519Z,42.00
2019-05-18T07:48:29.407Z,38.90
2019-05-18T07:51:37.039Z,36.50
2019-05-18T07:54:38.854Z,34.20
2019-05-18T07:57:42.697Z,33.00
2019-05-18T08:00:46.591Z,33.70
2019-05-18T08:03:50.466Z,32.60
2019-05-18T08:06:54.340Z,31.40
2019-05-18T08:09:58.191Z,32.00
2019-05-18T08:13:02.107Z,33.60
2019-05-18T08:16:05.927Z,33.70
2019-05-18T08:19:09.825Z,37.90
2019-05-18T08:22:13.694Z,41.30
2019-05-18T08:25:17.607Z,43.70
2019-05-18T08:28:22.470Z,46.60
2019-05-18T08:31:26.708Z,50.40
2019-05-18T08:34:30.548Z,56.60
2019-05-18T08:37:34.418Z,74.70
2019-05-18T08:40:38.382Z,90.00
2019-05-18T08:43:42.269Z,94.30
2019-05-18T08:46:46.157Z,98.50
2019-05-18T08:49:50.094Z,99.90
2019-05-18T08:52:53.934Z,99.90
2019-05-18T08:55:57.823Z,99.90
2019-05-18T08:59:01.664Z,99.90
2019-05-18T09:02:05.608Z,99.90
2019-05-18T09:05:10.534Z,99.90
2019-05-18T09:08:14.444Z,99.90
2019-05-18T09:11:18.288Z,99.90
2019-05-18T09:14:22.215Z,99.90
2019-05-18T09:17:26.057Z,99.90
2019-05-18T09:20:29.907Z,99.90
2019-05-18T09:23:33.740Z,99.90
2019-05-18T09:26:37.635Z,99.90
2019-05-18T09:29:41.458Z,99.90
2019-05-18T09:32:45.339Z,99.90
2019-05-18T09:35:49.187Z,99.90
2019-05-18T09:38:53.076Z,99.90
2019-05-18T09:41:56.934Z,99.90
2019-05-18T09:45:00.829Z,99.90
2019-05-18T09:48:04.979Z,99.90
2019-05-18T09:51:08.885Z,99.90
2019-05-18T09:54:12.749Z,99.90
2019-05-18T09:57:16.705Z,99.90
2019-05-18T10:00:21.613Z,99.90
2019-05-18T10:03:25.464Z,99.90
2019-05-18T10:06:31.448Z,99.90
2019-05-18T10:09:39.279Z,99.90
2019-05-18T10:12:40.438Z,99.90
2019-05-18T10:15:44.458Z,99.90
2019-05-18T10:18:48.309Z,99.90
2019-05-18T10:21:52.199Z,99.90
2019-05-18T10:24:56.020Z,99.90
2019-05-18T10:27:59.878Z,99.90
2019-05-18T10:31:03.711Z,99.90
2019-05-18T10:34:07.555Z,99.90
2019-05-18T10:37:11.453Z,99.90
2019-05-18T10:40:15.513Z,99.90
2019-05-18T10:43:19.364Z,99.90
2019-05-18T10:46:23.411Z,99.90
2019-05-18T10:49:27.212Z,99.90
2019-05-18T10:52:31.124Z,99.90
2019-05-18T10:55:34.975Z,99.90
2019-05-18T10:58:38.850Z,99.90
2019-05-18T11:01:44.039Z,99.90
2019-05-18T11:04:48.048Z,99.90
2019-05-18T11:07:51.904Z,99.90
2019-05-18T11:10:55.801Z,99.90
2019-05-18T11:13:59.641Z,99.90
2019-05-18T11:17:03.543Z,99.90
2019-05-18T11:20:09.668Z,99.90
2019-05-18T11:23:13.818Z,99.90
2019-05-18T11:26:17.669Z,99.90
2019-05-18T11:29:23.207Z,99.90
2019-05-18T11:32:27.094Z,99.90
2019-05-18T11:35:30.993Z,99.90
2019-05-18T11:38:37.583Z,99.90
2019-05-18T11:41:41.726Z,99.90
2019-05-18T11:44:45.599Z,99.90
2019-05-18T11:47:49.498Z,99.90
2019-05-18T11:50:53.320Z,99.90
2019-05-18T11:53:58.607Z,99.90
2019-05-18T11:57:02.740Z,99.90
2019-05-18T12:00:09.328Z,99.90
2019-05-18T12:03:13.157Z,99.90
2019-05-18T12:06:17.078Z,99.90
2019-05-18T12:09:20.926Z,99.90
2019-05-18T12:12:24.796Z,99.90
2019-05-18T12:15:29.037Z,99.90
2019-05-18T12:18:33.771Z,99.90
2019-05-18T12:21:37.587Z,99.90
2019-05-18T12:24:41.477Z,99.90
2019-05-18T12:27:45.417Z,99.90
2019-05-18T12:30:49.357Z,99.60
2019-05-18T12:33:53.178Z,98.40
2019-05-18T12:36:57.054Z,99.90
2019-05-18T12:40:00.939Z,99.90
2019-05-18T12:43:04.801Z,99.90
2019-05-18T12:46:08.717Z,99.80
2019-05-18T12:49:12.672Z,97.70
2019-05-18T12:52:16.610Z,97.00
2019-05-18T12:55:21.067Z,98.60
2019-05-18T12:58:24.918Z,99.90
2019-05-18T13:01:28.776Z,99.90
2019-05-18T13:04:32.659Z,96.70
2019-05-18T13:07:36.819Z,97.40
2019-05-18T13:10:40.748Z,98.20
2019-05-18T13:13:44.883Z,96.60
2019-05-18T13:16:48.761Z,99.70
2019-05-18T13:19:52.631Z,99.90
2019-05-18T13:22:56.515Z,99.90
2019-05-18T13:26:00.396Z,99.90
2019-05-18T13:29:04.338Z,99.90
2019-05-18T13:32:08.258Z,99.90
2019-05-18T13:35:13.695Z,99.90
2019-05-18T13:38:17.620Z,99.90
2019-05-18T13:41:21.538Z,99.90
2019-05-18T13:44:25.429Z,99.90
2019-05-18T13:47:29.283Z,99.40
2019-05-18T13:50:33.224Z,99.90
2019-05-18T13:53:37.068Z,99.90
2019-05-18T13:56:40.956Z,99.90
2019-05-18T13:59:44.840Z,99.90
2019-05-18T14:02:49.053Z,99.90
2019-05-18T14:05:52.949Z,99.90
2019-05-18T14:08:56.841Z,99.40
2019-05-18T14:12:00.713Z,99.90
2019-05-18T14:15:06.760Z,99.90
2019-05-18T14:18:10.616Z,99.90
2019-05-18T14:21:14.521Z,99.90
2019-05-18T14:24:18.343Z,99.90
2019-05-18T14:27:22.288Z,99.90
2019-05-18T14:30:26.126Z,99.90
2019-05-18T14:33:30.047Z,99.90
2019-05-18T14:36:33.884Z,99.90
2019-05-18T14:39:37.813Z,99.90
2019-05-18T14:42:41.680Z,99.90
2019-05-18T14:45:48.781Z,99.90
2019-05-18T14:48:51.088Z,99.90
2019-05-18T14:51:54.975Z,99.90
2019-05-18T14:54:58.881Z,99.90
2019-05-18T14:58:02.930Z,99.90
2019-05-18T15:01:06.869Z,99.90
2019-05-18T15:04:10.743Z,99.90
2019-05-18T15:07:14.593Z,99.90
2019-05-18T15:10:18.517Z,99.90
2019-05-18T15:13:22.356Z,99.90
2019-05-18T15:16:26.239Z,99.90
2019-05-18T15:19:30.115Z,99.90
2019-05-18T15:22:33.994Z,99.90
2019-05-18T15:25:49.643Z,99.90
2019-05-18T15:28:43.419Z,99.90
2019-05-18T15:31:47.283Z,99.90
2019-05-18T15:34:51.221Z,99.90
2019-05-18T15:37:55.053Z,99.90
2019-05-18T15:40:58.939Z,99.90
2019-05-18T15:44:02.777Z,99.90
2019-05-18T15:47:06.657Z,99.90
2019-05-18T15:50:11.160Z,99.90
2019-05-18T15:53:15.003Z,99.90
2019-05-18T15:56:18.880Z,99.90
2019-05-18T15:59:22.777Z,99.90
2019-05-18T16:02:26.640Z,99.90
2019-05-18T16:05:30.519Z,99.90
2019-05-18T16:08:34.569Z,99.90
2019-05-18T16:11:38.501Z,99.90
2019-05-18T16:14:42.476Z,99.90
2019-05-18T16:17:46.313Z,99.90
2019-05-18T16:20:50.185Z,99.90
2019-05-18T16:23:54.083Z,99.90
2019-05-18T16:26:57.949Z,99.90
2019-05-18T16:30:01.871Z,99.90
2019-05-18T16:33:05.699Z,99.90
2019-05-18T16:36:09.577Z,99.90
2019-05-18T16:39:13.418Z,99.90
2019-05-18T16:42:17.330Z,99.90
2019-05-18T16:45:21.275Z,99.90
2019-05-18T16:48:25.147Z,99.90
2019-05-18T16:51:28.982Z,99.90
2019-05-18T16:54:32.893Z,99.90
2019-05-18T16:57:36.772Z,99.90
2019-05-18T17:00:40.671Z,99.90
2019-05-18T17:03:44.498Z,99.90
2019-05-18T17:06:48.446Z,99.90
2019-05-18T17:09:52.298Z,99.90
2019-05-18T17:12:56.194Z,99.90
2019-05-18T17:16:00.061Z,99.90
2019-05-18T17:19:03.968Z,99.90
2019-05-18T17:22:07.821Z,99.90
2019-05-18T17:25:12.056Z,99.90
2019-05-18T17:28:15.876Z,99.90
2019-05-18T17:31:19.798Z,99.90
2019-05-18T17:34:23.696Z,99.90
2019-05-18T17:37:27.614Z,99.90
2019-05-18T17:40:32.639Z,99.90
2019-05-18T17:43:36.700Z,99.90
2019-05-18T17:46:40.522Z,99.90
2019-05-18T17:49:46.818Z,99.90
2019-05-18T17:52:50.743Z,99.90
2019-05-18T17:55:54.655Z,99.90
2019-05-18T17:58:58.584Z,99.90
2019-05-18T18:02:02.461Z,99.90
2019-05-18T18:05:08.317Z,99.90
2019-05-18T18:08:12.276Z,99.90
2019-05-18T18:11:16.248Z,99.90
2019-05-18T18:14:20.182Z,99.90
2019-05-18T18:17:24.141Z,99.90
2019-05-18T18:20:28.020Z,99.90
2019-05-18T18:23:31.921Z,99.90
2019-05-18T18:26:35.798Z,99.90
2019-05-18T18:29:39.699Z,99.90
2019-05-18T18:32:43.575Z,99.90
2019-05-18T18:35:47.462Z,99.90
2019-05-18T18:38:51.314Z,99.90
2019-05-18T18:41:55.198Z,99.90
2019-05-18T18:44:59.325Z,99.90
2019-05-18T18:48:03.302Z,99.90
2019-05-18T18:51:07.295Z,99.90
2019-05-18T18:54:12.726Z,99.90
2019-05-18T18:57:16.831Z,99.90
2019-05-18T19:00:20.762Z,99.90
2019-05-18T19:03:24.704Z,99.90
2019-05-18T19:06:28.539Z,99.90
2019-05-18T19:09:32.415Z,99.90
2019-05-18T19:12:36.958Z,99.90
2019-05-18T19:15:40.928Z,99.90
2019-05-18T19:18:44.786Z,99.90
2019-05-18T19:21:48.682Z,99.90
2019-05-18T19:24:55.680Z,99.90
2019-05-18T19:27:58.109Z,99.90
2019-05-18T19:31:02.031Z,99.90
2019-05-18T19:34:05.944Z,99.90
2019-05-18T19:37:09.845Z,99.90
2019-05-18T19:40:13.967Z,99.90
2019-05-18T19:43:17.814Z,99.90
2019-05-18T19:46:21.703Z,99.90
2019-05-18T19:49:25.554Z,99.90
2019-05-18T19:52:29.460Z,99.90
2019-05-18T19:55:33.332Z,99.90
2019-05-18T19:58:37.209Z,99.90
2019-05-18T20:01:41.112Z,99.90
2019-05-18T20:05:03.906Z,99.90
2019-05-18T20:07:50.641Z,99.90
2019-05-18T20:10:54.549Z,99.90
2019-05-18T20:13:58.470Z,99.90
2019-05-18T20:17:02.450Z,99.90
2019-05-18T20:20:07.985Z,99.90
2019-05-18T20:23:11.909Z,99.90
2019-05-18T20:26:15.733Z,99.90
2019-05-18T20:29:19.586Z,99.90
2019-05-18T20:32:23.510Z,99.90
2019-05-18T20:35:27.391Z,99.90
2019-05-18T20:38:31.229Z,99.90
2019-05-18T20:41:35.074Z,99.90
2019-05-18T20:44:38.974Z,99.90
2019-05-18T20:47:42.865Z,99.90
2019-05-18T20:50:46.727Z,99.90
2019-05-18T20:53:50.619Z,99.90
2019-05-18T20:56:54.471Z,99.90
2019-05-18T21:00:02.720Z,99.90
2019-05-18T21:03:06.595Z,99.90
2019-05-18T21:06:10.595Z,99.90
2019-05-18T21:09:14.483Z,99.90
2019-05-18T21:12:18.339Z,99.90
2019-05-18T21:15:22.252Z,99.90
2019-05-18T21:18:26.109Z,99.90
2019-05-18T21:21:30.012Z,99.90
2019-05-18T21:24:33.859Z,99.90
2019-05-18T21:27:37.784Z,99.90
2019-05-18T21:30:41.629Z,99.90
2019-05-18T21:33:45.513Z,99.90
2019-05-18T21:36:49.335Z,99.90
2019-05-18T21:39:53.356Z,99.90
2019-05-18T21:42:57.201Z,99.90
2019-05-18T21:46:01.079Z,99.90
2019-05-18T21:49:04.951Z,99.90
2019-05-18T21:52:08.898Z,99.90
2019-05-18T21:55:12.752Z,99.90
2019-05-18T21:58:16.630Z,99.90
2019-05-18T22:01:20.453Z,99.90
2019-05-18T22:04:24.321Z,99.90
2019-05-18T22:07:28.214Z,99.90
2019-05-18T22:10:32.093Z,99.90
2019-05-18T22:13:35.944Z,99.90
2019-05-18T22:16:40.118Z,99.90
2019-05-18T22:19:44.012Z,99.90
2019-05-18T22:22:47.905Z,99.90
2019-05-18T22:25:52.194Z,99.90
2019-05-18T22:28:56.080Z,99.90
2019-05-18T22:31:59.881Z,99.90
2019-05-18T22:35:04.423Z,99.90
2019-05-18T22:38:08.260Z,99.90
2019-05-18T22:41:12.141Z,99.90
2019-05-18T22:44:15.989Z,99.90
2019-05-18T22:47:19.882Z,99.90
2019-05-18T22:50:23.715Z,99.90
2019-05-18T22:53:27.633Z,99.90
2019-05-18T22:56:31.483Z,99.90
2019-05-18T22:59:35.361Z,99.90
2019-05-18T23:02:39.198Z,99.90
2019-05-18T23:05:43.067Z,99.90
2019-05-18T23:08:46.943Z,99.90
2019-05-18T23:11:50.853Z,99.90
2019-05-18T23:14:54.692Z,99.90
2019-05-18T23:17:58.571Z,99.90
2019-05-18T23:21:02.446Z,99.90
2019-05-18T23:24:06.361Z,99.90
2019-05-18T23:27:10.207Z,99.90
2019-05-18T23:30:14.330Z,99.90
2019-05-18T23:33:18.195Z,99.90
2019-05-18T23:36:22.072Z,99.90
2019-05-18T23:39:25.917Z,99.90
2019-05-18T23:42:29.835Z,99.90
2019-05-18T23:45:33.650Z,99.90
2019-05-18T23:48:37.633Z,99.90
2019-05-18T23:51:41.515Z,99.90
2019-05-18T23:54:45.435Z,99.90
2019-05-18T23:57:49.309Z,99.90
